This is the latest recevied weather packets stored in our database for station/object PD3EM. If no packets are shown the sender has not sent any weather packets the latest 10 day(s).
| Time | Temp. | Humidity | Pressure | Rain* | Wind** | Luminosity | Snow |
|---|---|---|---|---|---|---|---|
| 1777492019 | 13.33° C | 46% | 1027.6 hPa | 0 mm | - | 0 W/m² | - |
| 1777491418 | 13.89° C | 45% | 1027.7 hPa | 0 mm | - | 0 W/m² | - |
| 1777484243 | 16.67° C | 37% | 1026.5 hPa | 0 mm | - | 34 W/m² | - |
| 1777482399 | 17.22° C | 35% | 1026.5 hPa | 0 mm | - | 40 W/m² | - |
| 1777477589 | 18.33° C | 34% | 1026.7 hPa | 0 mm | - | 305 W/m² | - |
| 1777476386 | 18.33° C | 33% | 1026.4 hPa | 0 mm | - | 345 W/m² | - |
| 1777474022 | 18.33° C | 35% | 1026.8 hPa | 0 mm | - | 426 W/m² | - |
| 1777473381 | 18.33° C | 34% | 1026.9 hPa | 0 mm | - | 445 W/m² | - |
| 1777468571 | 17.78° C | 35% | 1027.4 hPa | 0 mm | - | 557 W/m² | - |
| 1777467970 | 17.78° C | 36% | 1027.2 hPa | 0 mm | - | 568 W/m² | - |
| 1777466767 | 18.33° C | 37% | 1027.3 hPa | 0 mm | - | 588 W/m² | - |
| 1777462659 | 18.33° C | 39% | 1027.8 hPa | 0 mm | - | 624 W/m² | - |
| 1777459011 | 17.22° C | 38% | 1027.9 hPa | 0 mm | - | 605 W/m² | - |
| 1777456005 | 17.22° C | 40% | 1028.2 hPa | 0 mm | - | 569 W/m² | - |
| 1777450594 | 14.44° C | 48% | 1028.6 hPa | 0 mm | - | 403 W/m² | - |
| 1777446386 | 11.67° C | 54% | 1028.4 hPa | 0 mm | - | 233 W/m² | - |
| 1777443981 | 10° C | 59% | 1028.3 hPa | 0 mm | - | 148 W/m² | - |
| 1777443380 | 9.44° C | 60% | 1028.4 hPa | 0 mm | - | 127 W/m² | - |
| 1777440975 | 7.78° C | 64% | 1027.8 hPa | 0 mm | - | 61 W/m² | - |
| 1777438570 | 6.67° C | 63% | 1027 hPa | 0 mm | - | 20 W/m² | - |
| 1777437969 | 6.67° C | 63% | 1027 hPa | 0 mm | - | 14 W/m² | - |
| 1777434422 | 7.78° C | 60% | 1026.8 hPa | 0 mm | - | 0 W/m² | - |
| 1777433820 | 7.78° C | 60% | 1027 hPa | 0 mm | - | 0 W/m² | - |
| 1777432017 | 8.33° C | 58% | 1026.7 hPa | 0 mm | - | 0 W/m² | - |
| 1777430855 | 8.33° C | 58% | 1026.9 hPa | 0 mm | - | 0 W/m² | - |
* Rain latest hour (hover to see other rain measurements)
** Current wind speed in m/s (hover to see current wind gust speed)